Pine Island, Minnesota
Current Conditions -  °F | °C
As of 10:13 AM on Sunday 23 Nov 2014 (Local Time) from K9MN Reporting Station
Overcast Overcast  
Wind Chill: 50°   Ceiling: 300
Heat Index: 50°   Visibility: 3mi
Dew Point: 49°   Wind: 12mph
Humidity: 98%   Direction: 150°SSE
Pressure: 29.47"   Gusts: NA
Location:  44.2°N, 92.65°W
Report Text: K9MN 231613Z AUTO 15010KT 3SM OVC003 10/10 A2947 RMK AO1 T01000097
Loading
Personal Weather Stations






























Interactive Weather Map New forecast layout! Learn more

10-Day Weather Forecast

Advertisements
Track Severe Weather on mobile